sensor_id;sensor_type;location;lat;lon;timestamp;pressure;altitude;pressure_sealevel;temperature;humidity
49689;BME280;70518;51.400;7.428;2024-01-25T00:01:04;158011.44;;;15.73;60.51
49689;BME280;70518;51.400;7.428;2024-01-25T00:03:29;158024.38;;;15.78;59.72
49689;BME280;70518;51.400;7.428;2024-01-25T00:05:55;158011.44;;;15.73;60.39
49689;BME280;70518;51.400;7.428;2024-01-25T00:08:20;158006.22;;;15.71;59.98
49689;BME280;70518;51.400;7.428;2024-01-25T00:10:46;158002.38;;;15.70;60.47
49689;BME280;70518;51.400;7.428;2024-01-25T00:13:11;158002.38;;;15.70;60.37
49689;BME280;70518;51.400;7.428;2024-01-25T00:15:36;157986.84;;;15.64;60.42
49689;BME280;70518;51.400;7.428;2024-01-25T00:18:02;157979.06;;;15.61;60.11
49689;BME280;70518;51.400;7.428;2024-01-25T00:20:27;157959.63;;;15.53;60.74
49689;BME280;70518;51.400;7.428;2024-01-25T00:22:53;157977.78;;;15.60;60.65
49689;BME280;70518;51.400;7.428;2024-01-25T00:25:18;157948.03;;;15.48;61.54
49689;BME280;70518;51.400;7.428;2024-01-25T00:27:43;157838.00;;;15.06;63.25
49689;BME280;70518;51.400;7.428;2024-01-25T00:30:10;157831.53;;;15.03;63.12
49689;BME280;70518;51.400;7.428;2024-01-25T00:32:35;157831.53;;;15.03;63.32
49689;BME280;70518;51.400;7.428;2024-01-25T00:35:01;157821.22;;;14.99;63.31
49689;BME280;70518;51.400;7.428;2024-01-25T00:37:27;157799.22;;;14.90;63.64
49689;BME280;70518;51.400;7.428;2024-01-25T00:39:52;157807.00;;;14.93;63.49
49689;BME280;70518;51.400;7.428;2024-01-25T00:42:18;157823.75;;;15.00;63.33
49689;BME280;70518;51.400;7.428;2024-01-25T00:44:46;157817.31;;;14.97;63.40
49689;BME280;70518;51.400;7.428;2024-01-25T00:47:11;157817.31;;;14.97;62.92
49689;BME280;70518;51.400;7.428;2024-01-25T00:49:37;157839.28;;;15.06;63.00
49689;BME280;70518;51.400;7.428;2024-01-25T00:52:03;157845.75;;;15.09;62.72
49689;BME280;70518;51.400;7.428;2024-01-25T00:54:29;157848.34;;;15.10;62.82
49689;BME280;70518;51.400;7.428;2024-01-25T00:56:54;157845.75;;;15.09;62.47
49689;BME280;70518;51.400;7.428;2024-01-25T00:59:20;157845.75;;;15.09;62.64
49689;BME280;70518;51.400;7.428;2024-01-25T01:01:48;157821.22;;;14.99;63.25
49689;BME280;70518;51.400;7.428;2024-01-25T01:04:17;157827.66;;;15.01;63.06
49689;BME280;70518;51.400;7.428;2024-01-25T01:06:42;157838.00;;;15.06;63.00
49689;BME280;70518;51.400;7.428;2024-01-25T01:09:08;157845.75;;;15.09;62.60
49689;BME280;70518;51.400;7.428;2024-01-25T01:11:33;157915.63;;;15.36;61.43
49689;BME280;70518;51.400;7.428;2024-01-25T01:13:59;157918.22;;;15.37;61.41
49689;BME280;70518;51.400;7.428;2024-01-25T01:16:24;157804.38;;;14.92;63.31
49689;BME280;70518;51.400;7.428;2024-01-25T01:18:49;157769.44;;;14.79;64.19
49689;BME280;70518;51.400;7.428;2024-01-25T01:21:14;157769.44;;;14.79;64.10
49689;BME280;70518;51.400;7.428;2024-01-25T01:23:40;157783.72;;;14.84;64.07
49689;BME280;70518;51.400;7.428;2024-01-25T01:26:05;157792.72;;;14.88;63.66
49689;BME280;70518;51.400;7.428;2024-01-25T01:28:30;157879.41;;;15.22;62.29
49689;BME280;70518;51.400;7.428;2024-01-25T01:30:56;157818.59;;;14.98;62.76
49689;BME280;70518;51.400;7.428;2024-01-25T01:33:21;157814.75;;;14.96;63.37
49689;BME280;70518;51.400;7.428;2024-01-25T01:35:46;157844.50;;;15.08;62.73
49689;BME280;70518;51.400;7.428;2024-01-25T01:38:11;157799.22;;;14.90;63.21
49689;BME280;70518;51.400;7.428;2024-01-25T01:40:37;157814.75;;;14.96;63.43
49689;BME280;70518;51.400;7.428;2024-01-25T01:43:02;157836.72;;;15.05;62.71
49689;BME280;70518;51.400;7.428;2024-01-25T01:45:27;157804.38;;;14.92;62.91
49689;BME280;70518;51.400;7.428;2024-01-25T01:47:53;157858.72;;;15.14;62.01
49689;BME280;70518;51.400;7.428;2024-01-25T01:50:19;157872.94;;;15.19;61.99
49689;BME280;70518;51.400;7.428;2024-01-25T01:52:44;157819.91;;;14.98;62.51
49689;BME280;70518;51.400;7.428;2024-01-25T01:55:10;157882.00;;;15.23;61.97
49689;BME280;70518;51.400;7.428;2024-01-25T01:57:35;157888.47;;;15.25;61.83
49689;BME280;70518;51.400;7.428;2024-01-25T02:00:01;157880.69;;;15.22;62.06
49689;BME280;70518;51.400;7.428;2024-01-25T02:02:29;157880.69;;;15.22;61.55
49689;BME280;70518;51.400;7.428;2024-01-25T02:04:54;157880.69;;;15.22;61.81
49689;BME280;70518;51.400;7.428;2024-01-25T02:07:19;157894.94;;;15.28;61.34
49689;BME280;70518;51.400;7.428;2024-01-25T02:09:45;157889.78;;;15.26;61.45
49689;BME280;70518;51.400;7.428;2024-01-25T02:12:10;157876.78;;;15.21;61.43
49689;BME280;70518;51.400;7.428;2024-01-25T02:14:35;157885.84;;;15.24;61.37
49689;BME280;70518;51.400;7.428;2024-01-25T02:17:00;157887.16;;;15.25;61.49
49689;BME280;70518;51.400;7.428;2024-01-25T02:19:25;157858.72;;;15.14;61.72
49689;BME280;70518;51.400;7.428;2024-01-25T02:21:51;157807.00;;;14.93;62.85
49689;BME280;70518;51.400;7.428;2024-01-25T02:24:18;157772.03;;;14.80;63.44
49689;BME280;70518;51.400;7.428;2024-01-25T02:26:44;157724.19;;;14.61;64.14
49689;BME280;70518;51.400;7.428;2024-01-25T02:29:09;157739.69;;;14.67;63.85
49689;BME280;70518;51.400;7.428;2024-01-25T02:31:35;157755.22;;;14.73;63.63
49689;BME280;70518;51.400;7.428;2024-01-25T02:34:00;157731.94;;;14.64;63.84
49689;BME280;70518;51.400;7.428;2024-01-25T02:36:25;157721.63;;;14.60;64.32
49689;BME280;70518;51.400;7.428;2024-01-25T02:38:50;157742.31;;;14.68;63.96
49689;BME280;70518;51.400;7.428;2024-01-25T02:41:15;157712.56;;;14.57;63.86
49689;BME280;70518;51.400;7.428;2024-01-25T02:43:41;157694.44;;;14.50;64.30
49689;BME280;70518;51.400;7.428;2024-01-25T02:46:07;157695.75;;;14.50;63.95
49689;BME280;70518;51.400;7.428;2024-01-25T02:48:32;157685.44;;;14.46;64.32
49689;BME280;70518;51.400;7.428;2024-01-25T02:50:57;157695.75;;;14.50;64.50
49689;BME280;70518;51.400;7.428;2024-01-25T02:53:22;157706.09;;;14.54;63.79
49689;BME280;70518;51.400;7.428;2024-01-25T02:55:47;157709.97;;;14.56;64.06
49689;BME280;70518;51.400;7.428;2024-01-25T02:58:13;157731.94;;;14.64;63.29
49689;BME280;70518;51.400;7.428;2024-01-25T03:00:38;157756.53;;;14.74;63.34
49689;BME280;70518;51.400;7.428;2024-01-25T03:03:03;157724.19;;;14.61;63.95
49689;BME280;70518;51.400;7.428;2024-01-25T03:05:28;157739.69;;;14.67;63.36
49689;BME280;70518;51.400;7.428;2024-01-25T03:07:54;157731.94;;;14.64;63.33
49689;BME280;70518;51.400;7.428;2024-01-25T03:10:19;157739.69;;;14.67;63.14
49689;BME280;70518;51.400;7.428;2024-01-25T03:12:45;157733.25;;;14.65;63.16
49689;BME280;70518;51.400;7.428;2024-01-25T03:15:10;157735.84;;;14.66;63.01
49689;BME280;70518;51.400;7.428;2024-01-25T03:17:36;157706.09;;;14.54;63.76
49689;BME280;70518;51.400;7.428;2024-01-25T03:20:01;157729.38;;;14.63;63.05
49689;BME280;70518;51.400;7.428;2024-01-25T03:22:26;157614.25;;;14.18;65.25
49689;BME280;70518;51.400;7.428;2024-01-25T03:24:51;157694.44;;;14.50;63.98
49689;BME280;70518;51.400;7.428;2024-01-25T03:27:17;157712.56;;;14.57;63.70
49689;BME280;70518;51.400;7.428;2024-01-25T03:29:42;157730.69;;;14.64;62.82
49689;BME280;70518;51.400;7.428;2024-01-25T03:32:08;157620.72;;;14.21;65.00
49689;BME280;70518;51.400;7.428;2024-01-25T03:34:33;157588.38;;;14.08;65.60
49689;BME280;70518;51.400;7.428;2024-01-25T03:36:59;157588.38;;;14.08;65.38
49689;BME280;70518;51.400;7.428;2024-01-25T03:39:24;157548.34;;;13.93;66.54
49689;BME280;70518;51.400;7.428;2024-01-25T03:41:49;157522.47;;;13.82;66.64
49689;BME280;70518;51.400;7.428;2024-01-25T03:44:14;157575.47;;;14.03;65.92
49689;BME280;70518;51.400;7.428;2024-01-25T03:46:39;157649.13;;;14.32;64.54
49689;BME280;70518;51.400;7.428;2024-01-25T03:49:04;157675.06;;;14.42;64.01
49689;BME280;70518;51.400;7.428;2024-01-25T03:51:30;157681.53;;;14.44;63.67
49689;BME280;70518;51.400;7.428;2024-01-25T03:53:55;157667.31;;;14.39;63.98
49689;BME280;70518;51.400;7.428;2024-01-25T03:56:23;157667.31;;;14.39;63.66
49689;BME280;70518;51.400;7.428;2024-01-25T03:58:48;157658.25;;;14.35;63.79
49689;BME280;70518;51.400;7.428;2024-01-25T04:01:13;157659.56;;;14.36;63.80
49689;BME280;70518;51.400;7.428;2024-01-25T04:03:38;157642.69;;;14.29;63.96
49689;BME280;70518;51.400;7.428;2024-01-25T04:06:04;157643.97;;;14.30;63.77
49689;BME280;70518;51.400;7.428;2024-01-25T04:08:29;157603.91;;;14.14;64.30
49689;BME280;70518;51.400;7.428;2024-01-25T04:10:54;157590.97;;;14.09;64.31
49689;BME280;70518;51.400;7.428;2024-01-25T04:13:19;157580.63;;;14.05;64.63
49689;BME280;70518;51.400;7.428;2024-01-25T04:15:45;157576.78;;;14.04;64.74
49689;BME280;70518;51.400;7.428;2024-01-25T04:18:10;157593.59;;;14.10;64.34
49689;BME280;70518;51.400;7.428;2024-01-25T04:20:35;157574.16;;;14.03;64.62
49689;BME280;70518;51.400;7.428;2024-01-25T04:23:00;157570.31;;;14.01;64.49
49689;BME280;70518;51.400;7.428;2024-01-25T04:25:25;157557.34;;;13.96;64.43
49689;BME280;70518;51.400;7.428;2024-01-25T04:27:50;157548.34;;;13.93;65.08
49689;BME280;70518;51.400;7.428;2024-01-25T04:30:16;157548.34;;;13.93;64.64
49689;BME280;70518;51.400;7.428;2024-01-25T04:32:41;157545.75;;;13.91;64.57
49689;BME280;70518;51.400;7.428;2024-01-25T04:35:07;157538.00;;;13.88;65.04
49689;BME280;70518;51.400;7.428;2024-01-25T04:37:33;157534.09;;;13.87;65.07
49689;BME280;70518;51.400;7.428;2024-01-25T04:39:59;157496.59;;;13.72;65.48
49689;BME280;70518;51.400;7.428;2024-01-25T04:42:24;157532.84;;;13.86;65.11
49689;BME280;70518;51.400;7.428;2024-01-25T04:44:49;157517.31;;;13.80;65.26
49689;BME280;70518;51.400;7.428;2024-01-25T04:47:14;157499.22;;;13.73;65.53
49689;BME280;70518;51.400;7.428;2024-01-25T04:49:40;157487.59;;;13.69;65.79
49689;BME280;70518;51.400;7.428;2024-01-25T04:52:05;157386.81;;;13.29;66.94
49689;BME280;70518;51.400;7.428;2024-01-25T04:54:30;157482.41;;;13.67;66.03
49689;BME280;70518;51.400;7.428;2024-01-25T04:56:55;157487.59;;;13.69;65.72
49689;BME280;70518;51.400;7.428;2024-01-25T04:59:21;157477.25;;;13.65;65.68
49689;BME280;70518;51.400;7.428;2024-01-25T05:01:46;157460.44;;;13.58;65.81
49689;BME280;70518;51.400;7.428;2024-01-25T05:04:11;157452.69;;;13.55;65.98
49689;BME280;70518;51.400;7.428;2024-01-25T05:06:36;157417.81;;;13.42;66.68
49689;BME280;70518;51.400;7.428;2024-01-25T05:09:02;157463.03;;;13.59;65.81
49689;BME280;70518;51.400;7.428;2024-01-25T05:11:28;157452.69;;;13.55;65.94
49689;BME280;70518;51.400;7.428;2024-01-25T05:13:53;157447.53;;;13.53;65.76
49689;BME280;70518;51.400;7.428;2024-01-25T05:16:18;157441.06;;;13.51;66.07
49689;BME280;70518;51.400;7.428;2024-01-25T05:18:43;157434.56;;;13.48;65.73
49689;BME280;70518;51.400;7.428;2024-01-25T05:21:09;157429.41;;;13.46;65.69
49689;BME280;70518;51.400;7.428;2024-01-25T05:23:34;157419.09;;;13.42;66.43
49689;BME280;70518;51.400;7.428;2024-01-25T05:25:59;157420.38;;;13.43;66.01
49689;BME280;70518;51.400;7.428;2024-01-25T05:28:24;157422.97;;;13.44;65.92
49689;BME280;70518;51.400;7.428;2024-01-25T05:30:50;157441.06;;;13.51;65.64
49689;BME280;70518;51.400;7.428;2024-01-25T05:33:15;157419.09;;;13.42;65.69
49689;BME280;70518;51.400;7.428;2024-01-25T05:35:40;157416.50;;;13.41;66.01
49689;BME280;70518;51.400;7.428;2024-01-25T05:38:05;157390.66;;;13.31;66.31
49689;BME280;70518;51.400;7.428;2024-01-25T05:40:30;157368.69;;;13.22;66.53
49689;BME280;70518;51.400;7.428;2024-01-25T05:42:56;157382.91;;;13.28;66.24
49689;BME280;70518;51.400;7.428;2024-01-25T05:45:21;157377.75;;;13.26;66.48
49689;BME280;70518;51.400;7.428;2024-01-25T05:47:46;157381.59;;;13.27;66.36
49689;BME280;70518;51.400;7.428;2024-01-25T05:50:12;157380.34;;;13.27;66.23
49689;BME280;70518;51.400;7.428;2024-01-25T05:52:37;157379.03;;;13.26;66.37
49689;BME280;70518;51.400;7.428;2024-01-25T05:55:03;157375.13;;;13.25;66.14
49689;BME280;70518;51.400;7.428;2024-01-25T05:57:28;157333.84;;;13.09;66.93
49689;BME280;70518;51.400;7.428;2024-01-25T05:59:54;157355.78;;;13.17;66.86
49689;BME280;70518;51.400;7.428;2024-01-25T06:02:19;157270.47;;;12.84;68.33
49689;BME280;70518;51.400;7.428;2024-01-25T06:04:44;157260.13;;;12.80;68.77
49689;BME280;70518;51.400;7.428;2024-01-25T06:07:09;157297.56;;;12.95;67.80
49689;BME280;70518;51.400;7.428;2024-01-25T06:09:35;157306.63;;;12.98;67.68
49689;BME280;70518;51.400;7.428;2024-01-25T06:12:00;157328.59;;;13.07;67.11
49689;BME280;70518;51.400;7.428;2024-01-25T06:14:26;157328.59;;;13.07;66.98
49689;BME280;70518;51.400;7.428;2024-01-25T06:16:51;157319.56;;;13.03;67.34
49689;BME280;70518;51.400;7.428;2024-01-25T06:19:16;157274.38;;;12.86;67.31
49689;BME280;70518;51.400;7.428;2024-01-25T06:21:42;157275.63;;;12.86;67.82
49689;BME280;70518;51.400;7.428;2024-01-25T06:24:07;157169.72;;;12.45;69.98
49689;BME280;70518;51.400;7.428;2024-01-25T06:26:32;157150.38;;;12.37;70.16
49689;BME280;70518;51.400;7.428;2024-01-25T06:28:57;157161.97;;;12.42;69.52
49689;BME280;70518;51.400;7.428;2024-01-25T06:31:26;157041.91;;;11.95;72.42
49689;BME280;70518;51.400;7.428;2024-01-25T06:33:51;156999.34;;;11.78;73.34
49689;BME280;70518;51.400;7.428;2024-01-25T06:36:18;157058.72;;;12.01;72.04
49689;BME280;70518;51.400;7.428;2024-01-25T06:38:43;157060.00;;;12.02;71.93
49689;BME280;70518;51.400;7.428;2024-01-25T06:41:08;157096.16;;;12.16;70.99
49689;BME280;70518;51.400;7.428;2024-01-25T06:43:34;157092.25;;;12.14;70.64
49689;BME280;70518;51.400;7.428;2024-01-25T06:45:59;157056.09;;;12.00;71.30
49689;BME280;70518;51.400;7.428;2024-01-25T06:48:24;157019.97;;;11.86;71.99
49689;BME280;70518;51.400;7.428;2024-01-25T06:50:49;156992.91;;;11.76;72.52
49689;BME280;70518;51.400;7.428;2024-01-25T06:53:15;157025.13;;;11.88;72.00
49689;BME280;70518;51.400;7.428;2024-01-25T06:55:41;157022.56;;;11.87;71.68
49689;BME280;70518;51.400;7.428;2024-01-25T06:58:06;157063.84;;;12.03;70.82
49689;BME280;70518;51.400;7.428;2024-01-25T07:00:31;157075.50;;;12.08;70.66
49689;BME280;70518;51.400;7.428;2024-01-25T07:02:56;157050.97;;;11.98;71.26
49689;BME280;70518;51.400;7.428;2024-01-25T07:05:22;157053.56;;;11.99;71.22
49689;BME280;70518;51.400;7.428;2024-01-25T07:07:47;157060.00;;;12.02;71.54
49689;BME280;70518;51.400;7.428;2024-01-25T07:10:12;157049.66;;;11.98;71.51
49689;BME280;70518;51.400;7.428;2024-01-25T07:12:37;157070.31;;;12.06;70.87
49689;BME280;70518;51.400;7.428;2024-01-25T07:15:03;157072.91;;;12.07;70.66
49689;BME280;70518;51.400;7.428;2024-01-25T07:17:28;157072.91;;;12.07;70.64
49689;BME280;70518;51.400;7.428;2024-01-25T07:19:53;157069.06;;;12.05;70.43
49689;BME280;70518;51.400;7.428;2024-01-25T07:22:19;157074.19;;;12.07;70.25
49689;BME280;70518;51.400;7.428;2024-01-25T07:24:46;156969.59;;;11.66;71.83
49689;BME280;70518;51.400;7.428;2024-01-25T07:27:11;156942.47;;;11.56;72.61
49689;BME280;70518;51.400;7.428;2024-01-25T07:29:37;156970.84;;;11.67;72.00
49689;BME280;70518;51.400;7.428;2024-01-25T07:32:02;157004.50;;;11.80;71.38
49689;BME280;70518;51.400;7.428;2024-01-25T07:34:28;157040.63;;;11.94;70.39
49689;BME280;70518;51.400;7.428;2024-01-25T07:36:53;157050.97;;;11.98;70.67
49689;BME280;70518;51.400;7.428;2024-01-25T07:39:18;157058.72;;;12.01;70.58
49689;BME280;70518;51.400;7.428;2024-01-25T07:41:43;156999.34;;;11.78;71.51
49689;BME280;70518;51.400;7.428;2024-01-25T07:44:08;156990.28;;;11.75;71.68
49689;BME280;70518;51.400;7.428;2024-01-25T07:46:34;156983.84;;;11.72;72.23
49689;BME280;70518;51.400;7.428;2024-01-25T07:48:59;156987.69;;;11.74;72.19
49689;BME280;70518;51.400;7.428;2024-01-25T07:51:24;156989.00;;;11.74;72.14
49689;BME280;70518;51.400;7.428;2024-01-25T07:53:53;157079.34;;;12.09;70.72
49689;BME280;70518;51.400;7.428;2024-01-25T07:56:18;157120.69;;;12.25;69.81
49689;BME280;70518;51.400;7.428;2024-01-25T07:58:43;157129.72;;;12.29;69.47
49689;BME280;70518;51.400;7.428;2024-01-25T08:01:08;157112.94;;;12.22;69.90
49689;BME280;70518;51.400;7.428;2024-01-25T08:03:34;157101.28;;;12.18;70.31
49689;BME280;70518;51.400;7.428;2024-01-25T08:05:59;157110.34;;;12.21;69.86
49689;BME280;70518;51.400;7.428;2024-01-25T08:08:25;157100.00;;;12.17;70.85
49689;BME280;70518;51.400;7.428;2024-01-25T08:10:50;157098.75;;;12.17;70.74
49689;BME280;70518;51.400;7.428;2024-01-25T08:13:15;157091.00;;;12.14;71.15
49689;BME280;70518;51.400;7.428;2024-01-25T08:15:40;157105.19;;;12.19;71.46
49689;BME280;70518;51.400;7.428;2024-01-25T08:18:06;157105.19;;;12.19;71.10
49689;BME280;70518;51.400;7.428;2024-01-25T08:20:31;157118.09;;;12.24;70.96
49689;BME280;70518;51.400;7.428;2024-01-25T08:22:56;157119.38;;;12.25;71.28
49689;BME280;70518;51.400;7.428;2024-01-25T08:25:21;157116.78;;;12.24;71.43
49689;BME280;70518;51.400;7.428;2024-01-25T08:27:47;157146.47;;;12.36;70.93
49689;BME280;70518;51.400;7.428;2024-01-25T08:30:12;157110.34;;;12.21;71.41
49689;BME280;70518;51.400;7.428;2024-01-25T08:32:37;157089.69;;;12.13;72.54
49689;BME280;70518;51.400;7.428;2024-01-25T08:35:02;157060.00;;;12.02;73.06
49689;BME280;70518;51.400;7.428;2024-01-25T08:37:28;157044.50;;;11.96;74.13
49689;BME280;70518;51.400;7.428;2024-01-25T08:39:53;157085.78;;;12.12;74.15
49689;BME280;70518;51.400;7.428;2024-01-25T08:42:18;157119.38;;;12.25;72.76
49689;BME280;70518;51.400;7.428;2024-01-25T08:44:44;157105.19;;;12.19;72.51
49689;BME280;70518;51.400;7.428;2024-01-25T08:47:16;157124.53;;;12.27;72.32
49689;BME280;70518;51.400;7.428;2024-01-25T08:49:42;157178.78;;;12.48;71.61
49689;BME280;70518;51.400;7.428;2024-01-25T08:52:07;157137.47;;;12.32;71.99
49689;BME280;70518;51.400;7.428;2024-01-25T08:54:32;157137.47;;;12.32;72.25
49689;BME280;70518;51.400;7.428;2024-01-25T08:56:59;157133.59;;;12.31;72.24
49689;BME280;70518;51.400;7.428;2024-01-25T08:59:24;157116.78;;;12.24;72.74
49689;BME280;70518;51.400;7.428;2024-01-25T09:01:50;157137.47;;;12.32;72.39
49689;BME280;70518;51.400;7.428;2024-01-25T09:04:15;157196.88;;;12.55;71.20
49689;BME280;70518;51.400;7.428;2024-01-25T09:06:40;157180.06;;;12.49;71.67
49689;BME280;70518;51.400;7.428;2024-01-25T09:09:05;157167.19;;;12.44;71.85
49689;BME280;70518;51.400;7.428;2024-01-25T09:11:31;157199.41;;;12.56;71.38
49689;BME280;70518;51.400;7.428;2024-01-25T09:13:56;157209.78;;;12.60;71.05
49689;BME280;70518;51.400;7.428;2024-01-25T09:16:21;157214.91;;;12.62;71.03
49689;BME280;70518;51.400;7.428;2024-01-25T09:18:47;157192.97;;;12.54;71.77
49689;BME280;70518;51.400;7.428;2024-01-25T09:21:12;157187.81;;;12.52;71.76
49689;BME280;70518;51.400;7.428;2024-01-25T09:23:37;157195.56;;;12.55;71.98
49689;BME280;70518;51.400;7.428;2024-01-25T09:26:03;157189.13;;;12.52;72.07
49689;BME280;70518;51.400;7.428;2024-01-25T09:28:28;157177.47;;;12.48;72.48
49689;BME280;70518;51.400;7.428;2024-01-25T09:30:53;157187.81;;;12.52;72.54
49689;BME280;70518;51.400;7.428;2024-01-25T09:33:18;157155.53;;;12.39;73.13
49689;BME280;70518;51.400;7.428;2024-01-25T09:35:44;157146.47;;;12.36;73.72
49689;BME280;70518;51.400;7.428;2024-01-25T09:38:11;157152.97;;;12.38;73.79
49689;BME280;70518;51.400;7.428;2024-01-25T09:40:37;157199.41;;;12.56;72.59
49689;BME280;70518;51.400;7.428;2024-01-25T09:43:02;157186.53;;;12.51;73.19
49689;BME280;70518;51.400;7.428;2024-01-25T09:45:27;157199.41;;;12.56;72.69
49689;BME280;70518;51.400;7.428;2024-01-25T09:47:53;157208.47;;;12.60;72.50
49689;BME280;70518;51.400;7.428;2024-01-25T09:50:18;157243.38;;;12.73;71.97
49689;BME280;70518;51.400;7.428;2024-01-25T09:52:43;157284.69;;;12.90;70.76
49689;BME280;70518;51.400;7.428;2024-01-25T09:55:11;157282.13;;;12.89;70.86
49689;BME280;70518;51.400;7.428;2024-01-25T09:57:38;157346.72;;;13.14;70.04
49689;BME280;70518;51.400;7.428;2024-01-25T10:00:06;157358.34;;;13.18;69.67
49689;BME280;70518;51.400;7.428;2024-01-25T10:02:36;157357.09;;;13.18;69.39
49689;BME280;70518;51.400;7.428;2024-01-25T10:05:01;157370.00;;;13.23;69.40
49689;BME280;70518;51.400;7.428;2024-01-25T10:07:43;157357.09;;;13.18;69.59
49689;BME280;70518;51.400;7.428;2024-01-25T10:10:09;157357.09;;;13.18;69.76
49689;BME280;70518;51.400;7.428;2024-01-25T10:12:35;157360.94;;;13.19;69.42
49689;BME280;70518;51.400;7.428;2024-01-25T10:15:00;157357.09;;;13.18;69.59
49689;BME280;70518;51.400;7.428;2024-01-25T10:17:25;157350.63;;;13.15;69.53
49689;BME280;70518;51.400;7.428;2024-01-25T10:19:51;157355.78;;;13.17;70.09
49689;BME280;70518;51.400;7.428;2024-01-25T10:22:16;157376.44;;;13.25;69.62
49689;BME280;70518;51.400;7.428;2024-01-25T10:24:41;157360.94;;;13.19;69.85
49689;BME280;70518;51.400;7.428;2024-01-25T10:27:07;157363.53;;;13.20;70.03
49689;BME280;70518;51.400;7.428;2024-01-25T10:29:34;157371.28;;;13.23;69.71
49689;BME280;70518;51.400;7.428;2024-01-25T10:31:59;157366.09;;;13.21;69.72
49689;BME280;70518;51.400;7.428;2024-01-25T10:34:24;157373.84;;;13.24;69.38
49689;BME280;70518;51.400;7.428;2024-01-25T10:36:50;157364.84;;;13.21;69.65
49689;BME280;70518;51.400;7.428;2024-01-25T10:39:16;157358.34;;;13.18;70.22
49689;BME280;70518;51.400;7.428;2024-01-25T10:41:42;157355.78;;;13.17;70.05
49689;BME280;70518;51.400;7.428;2024-01-25T10:44:09;157353.19;;;13.16;70.28
49689;BME280;70518;51.400;7.428;2024-01-25T10:46:35;157353.19;;;13.16;70.12
49689;BME280;70518;51.400;7.428;2024-01-25T10:49:02;157370.00;;;13.23;69.86
49689;BME280;70518;51.400;7.428;2024-01-25T10:51:27;157355.78;;;13.17;69.63
49689;BME280;70518;51.400;7.428;2024-01-25T10:53:53;157345.44;;;13.13;70.56
49689;BME280;70518;51.400;7.428;2024-01-25T10:56:18;157350.63;;;13.15;70.33
49689;BME280;70518;51.400;7.428;2024-01-25T10:58:43;157306.63;;;12.98;70.71
49689;BME280;70518;51.400;7.428;2024-01-25T11:01:09;157261.41;;;12.80;72.35
49689;BME280;70518;51.400;7.428;2024-01-25T11:03:36;157337.69;;;13.10;71.00
49689;BME280;70518;51.400;7.428;2024-01-25T11:06:10;157390.66;;;13.31;69.79
49689;BME280;70518;51.400;7.428;2024-01-25T11:08:36;157404.84;;;13.36;69.51
49689;BME280;70518;51.400;7.428;2024-01-25T11:11:05;157410.06;;;13.39;69.59
49689;BME280;70518;51.400;7.428;2024-01-25T11:13:31;157430.72;;;13.47;69.18
49689;BME280;70518;51.400;7.428;2024-01-25T11:15:56;157442.31;;;13.51;69.22
49689;BME280;70518;51.400;7.428;2024-01-25T11:18:24;157463.03;;;13.59;68.91
49689;BME280;70518;51.400;7.428;2024-01-25T11:20:49;157473.34;;;13.63;68.79
49689;BME280;70518;51.400;7.428;2024-01-25T11:23:15;157466.88;;;13.61;68.82
49689;BME280;70518;51.400;7.428;2024-01-25T11:25:43;157496.59;;;13.72;68.58
49689;BME280;70518;51.400;7.428;2024-01-25T11:28:08;157500.50;;;13.74;68.53
49689;BME280;70518;51.400;7.428;2024-01-25T11:30:34;157514.72;;;13.79;68.46
49689;BME280;70518;51.400;7.428;2024-01-25T11:33:00;157518.56;;;13.81;68.39
49689;BME280;70518;51.400;7.428;2024-01-25T11:35:25;157532.84;;;13.86;68.16
49689;BME280;70518;51.400;7.428;2024-01-25T11:37:53;157535.38;;;13.87;67.67
49689;BME280;70518;51.400;7.428;2024-01-25T11:40:18;157562.56;;;13.98;67.66
49689;BME280;70518;51.400;7.428;2024-01-25T11:42:45;157562.56;;;13.98;67.58
49689;BME280;70518;51.400;7.428;2024-01-25T11:45:11;157574.16;;;14.03;67.33
49689;BME280;70518;51.400;7.428;2024-01-25T11:47:37;157576.78;;;14.04;66.92
49689;BME280;70518;51.400;7.428;2024-01-25T11:50:02;157588.38;;;14.08;67.01
49689;BME280;70518;51.400;7.428;2024-01-25T11:52:28;157603.91;;;14.14;66.94
49689;BME280;70518;51.400;7.428;2024-01-25T11:54:53;157610.34;;;14.17;66.75
49689;BME280;70518;51.400;7.428;2024-01-25T11:57:18;157534.09;;;13.87;68.16
49689;BME280;70518;51.400;7.428;2024-01-25T11:59:44;157490.16;;;13.70;69.10
49689;BME280;70518;51.400;7.428;2024-01-25T12:02:11;157516.03;;;13.80;68.54
49689;BME280;70518;51.400;7.428;2024-01-25T12:04:36;157508.25;;;13.77;68.70
49689;BME280;70518;51.400;7.428;2024-01-25T12:07:02;157519.88;;;13.81;68.60
49689;BME280;70518;51.400;7.428;2024-01-25T12:09:28;157552.19;;;13.94;67.87
49689;BME280;70518;51.400;7.428;2024-01-25T12:11:53;157541.84;;;13.90;67.67
49689;BME280;70518;51.400;7.428;2024-01-25T12:14:18;157570.31;;;14.01;67.13
49689;BME280;70518;51.400;7.428;2024-01-25T12:16:43;157540.59;;;13.89;67.06
49689;BME280;70518;51.400;7.428;2024-01-25T12:19:08;157548.34;;;13.93;66.98
49689;BME280;70518;51.400;7.428;2024-01-25T12:21:34;157580.63;;;14.05;66.64
49689;BME280;70518;51.400;7.428;2024-01-25T12:23:59;157574.16;;;14.03;66.60
49689;BME280;70518;51.400;7.428;2024-01-25T12:26:25;157565.09;;;13.99;66.93
49689;BME280;70518;51.400;7.428;2024-01-25T12:28:50;157547.03;;;13.92;67.18
49689;BME280;70518;51.400;7.428;2024-01-25T12:31:15;157580.63;;;14.05;66.70
49689;BME280;70518;51.400;7.428;2024-01-25T12:33:41;157593.59;;;14.10;66.26
49689;BME280;70518;51.400;7.428;2024-01-25T12:36:06;157602.59;;;14.14;66.01
49689;BME280;70518;51.400;7.428;2024-01-25T12:38:31;157602.59;;;14.14;66.18
49689;BME280;70518;51.400;7.428;2024-01-25T12:40:58;157561.25;;;13.98;66.04